createdAt,value
2018-11-21T00:01:22.062Z,5.60
2018-11-21T00:03:50.158Z,5.60
2018-11-21T00:06:18.244Z,5.50
2018-11-21T00:08:47.292Z,5.50
2018-11-21T00:11:15.383Z,5.40
2018-11-21T00:13:43.531Z,5.50
2018-11-21T00:16:11.615Z,5.60
2018-11-21T00:18:39.794Z,5.60
2018-11-21T00:21:07.942Z,5.50
2018-11-21T00:23:36.035Z,5.30
2018-11-21T00:26:04.479Z,5.20
2018-11-21T00:28:32.646Z,5.40
2018-11-21T00:31:00.768Z,5.60
2018-11-21T00:33:28.863Z,5.60
2018-11-21T00:35:57.055Z,5.50
2018-11-21T00:38:25.187Z,5.60
2018-11-21T00:40:53.296Z,5.70
2018-11-21T00:43:21.369Z,5.60
2018-11-21T00:45:49.471Z,5.70
2018-11-21T00:48:17.663Z,5.80
2018-11-21T00:50:45.744Z,5.90
2018-11-21T00:53:13.851Z,5.80
2018-11-21T00:55:41.942Z,5.70
2018-11-21T00:58:10.072Z,5.80
2018-11-21T01:00:38.172Z,5.80
2018-11-21T01:03:06.261Z,5.80
2018-11-21T01:05:34.335Z,5.70
2018-11-21T01:08:02.450Z,5.70
2018-11-21T01:10:30.536Z,5.60
2018-11-21T01:12:58.612Z,5.50
2018-11-21T01:15:26.709Z,5.40
2018-11-21T01:17:54.850Z,5.60
2018-11-21T01:20:22.981Z,5.70
2018-11-21T01:22:51.155Z,5.70
2018-11-21T01:25:19.285Z,5.60
2018-11-21T01:27:47.479Z,5.60
2018-11-21T01:30:15.588Z,5.60
2018-11-21T01:32:43.666Z,5.70
2018-11-21T01:35:11.748Z,5.60
2018-11-21T01:37:39.855Z,5.70
2018-11-21T01:40:08.691Z,5.70
2018-11-21T01:42:36.791Z,5.80
2018-11-21T01:45:05.033Z,5.90
2018-11-21T01:47:33.150Z,5.90
2018-11-21T01:50:01.226Z,5.90
2018-11-21T01:52:29.332Z,5.90
2018-11-21T01:54:57.423Z,6.00
2018-11-21T01:57:25.528Z,6.00
2018-11-21T01:59:53.652Z,6.00
2018-11-21T02:02:21.758Z,6.00
2018-11-21T02:04:49.855Z,6.10
2018-11-21T02:07:17.950Z,6.00
2018-11-21T02:09:46.092Z,6.00
2018-11-21T02:12:14.174Z,6.20
2018-11-21T02:14:42.281Z,6.20
2018-11-21T02:17:10.503Z,6.10
2018-11-21T02:19:38.704Z,6.10
2018-11-21T02:22:06.789Z,6.20
2018-11-21T02:24:35.028Z,6.20
2018-11-21T02:27:03.213Z,6.20
2018-11-21T02:29:31.460Z,6.10
2018-11-21T02:31:59.570Z,5.90
2018-11-21T02:34:27.669Z,5.70
2018-11-21T02:36:55.841Z,5.80
2018-11-21T02:39:24.023Z,5.80
2018-11-21T02:41:52.131Z,6.00
2018-11-21T02:44:20.213Z,6.10
2018-11-21T02:46:48.338Z,6.20
2018-11-21T02:49:16.499Z,6.20
2018-11-21T02:51:44.583Z,6.10
2018-11-21T02:54:12.704Z,6.10
2018-11-21T02:57:22.445Z,6.10
2018-11-21T03:00:00.508Z,6.10
2018-11-21T03:02:28.635Z,6.00
2018-11-21T03:04:56.730Z,6.00
2018-11-21T03:07:24.821Z,6.00
2018-11-21T03:09:53.023Z,5.90
2018-11-21T03:12:21.109Z,6.00
2018-11-21T03:14:49.200Z,5.90
2018-11-21T03:17:17.283Z,5.90
2018-11-21T03:19:45.414Z,5.70
2018-11-21T03:22:13.575Z,5.70
2018-11-21T03:24:41.675Z,5.70
2018-11-21T03:27:09.782Z,5.70
2018-11-21T03:29:38.951Z,5.60
2018-11-21T03:32:07.054Z,5.60
2018-11-21T03:34:35.138Z,5.50
2018-11-21T03:37:03.284Z,5.60
2018-11-21T03:39:31.388Z,5.80
2018-11-21T03:41:59.583Z,5.50
2018-11-21T03:44:27.651Z,5.50
2018-11-21T03:46:55.750Z,5.70
2018-11-21T03:49:23.903Z,5.70
2018-11-21T03:51:52.010Z,5.80
2018-11-21T03:56:48.171Z,6.10
2018-11-21T03:59:18.268Z,6.00
2018-11-21T04:01:47.676Z,5.90
2018-11-21T04:04:15.791Z,6.00
2018-11-21T04:06:43.904Z,5.90
2018-11-21T04:09:12.796Z,5.70
2018-11-21T04:11:40.872Z,5.80
2018-11-21T04:14:08.988Z,5.90
2018-11-21T04:16:37.070Z,5.90
2018-11-21T04:19:05.198Z,6.00
2018-11-21T04:21:33.298Z,6.00
2018-11-21T04:24:01.414Z,6.10
2018-11-21T04:26:29.492Z,6.10
2018-11-21T04:28:57.701Z,6.00
2018-11-21T04:31:25.817Z,6.10
2018-11-21T04:33:53.984Z,6.10
2018-11-21T04:36:22.090Z,5.90
2018-11-21T04:38:50.258Z,5.90
2018-11-21T04:41:18.385Z,5.80
2018-11-21T04:43:46.512Z,5.80
2018-11-21T04:46:14.758Z,5.60
2018-11-21T04:48:42.955Z,5.60
2018-11-21T04:51:11.083Z,5.40
2018-11-21T04:53:39.192Z,5.40
2018-11-21T04:56:07.283Z,5.50
2018-11-21T04:58:35.492Z,5.80
2018-11-21T05:01:03.998Z,5.70
2018-11-21T05:03:32.111Z,5.80
2018-11-21T05:06:00.190Z,5.90
2018-11-21T05:08:28.360Z,5.80
2018-11-21T05:10:56.488Z,5.70
2018-11-21T05:13:24.573Z,5.80
2018-11-21T05:15:52.692Z,5.90
2018-11-21T05:18:20.872Z,6.00
2018-11-21T05:20:48.968Z,5.90
2018-11-21T05:23:17.075Z,6.10
2018-11-21T05:25:45.193Z,6.20
2018-11-21T05:28:13.323Z,6.10
2018-11-21T05:30:41.414Z,6.10
2018-11-21T05:33:09.528Z,5.90
2018-11-21T05:35:37.623Z,5.80
2018-11-21T05:38:05.846Z,5.90
2018-11-21T05:40:33.930Z,5.90
2018-11-21T05:43:02.036Z,6.10
2018-11-21T05:45:30.111Z,6.20
2018-11-21T05:47:58.239Z,6.20
2018-11-21T05:50:26.318Z,6.20
2018-11-21T05:52:54.416Z,6.20
2018-11-21T05:55:22.509Z,6.00
2018-11-21T05:57:50.614Z,5.90
2018-11-21T06:00:19.698Z,6.00
2018-11-21T06:02:47.773Z,6.00
2018-11-21T06:05:15.878Z,6.20
2018-11-21T06:07:43.967Z,6.20
2018-11-21T06:10:13.627Z,6.20
2018-11-21T06:12:42.298Z,6.20
2018-11-21T06:15:10.985Z,6.20
2018-11-21T06:17:39.079Z,6.30
2018-11-21T06:20:12.142Z,6.30
2018-11-21T06:22:40.307Z,6.10
2018-11-21T06:25:09.205Z,6.00
2018-11-21T06:27:37.321Z,6.00
2018-11-21T06:30:08.830Z,6.10
2018-11-21T06:32:36.930Z,6.00
2018-11-21T06:35:06.404Z,6.00
2018-11-21T06:37:34.499Z,6.10
2018-11-21T06:40:02.785Z,6.10
2018-11-21T06:42:30.883Z,6.20
2018-11-21T06:44:58.983Z,6.10
2018-11-21T06:47:27.047Z,6.10
2018-11-21T06:49:55.164Z,6.00
2018-11-21T06:52:23.268Z,5.90
2018-11-21T06:54:51.347Z,5.90
2018-11-21T06:57:19.442Z,5.90
2018-11-21T06:59:47.537Z,6.00
2018-11-21T07:02:15.796Z,6.00
2018-11-21T07:04:43.890Z,6.00
2018-11-21T07:07:12.133Z,6.10
2018-11-21T07:09:40.312Z,6.20
2018-11-21T07:12:08.528Z,6.10
2018-11-21T07:14:36.790Z,6.10
2018-11-21T07:17:05.274Z,6.00
2018-11-21T07:19:33.577Z,6.00
2018-11-21T07:22:01.920Z,6.20
2018-11-21T07:24:30.157Z,6.30
2018-11-21T07:26:58.282Z,6.40
2018-11-21T07:29:26.613Z,6.50
2018-11-21T07:31:54.710Z,6.40
2018-11-21T07:34:23.226Z,6.40
2018-11-21T07:36:51.710Z,6.50
2018-11-21T07:39:21.025Z,6.30
2018-11-21T07:41:49.280Z,6.20
2018-11-21T07:44:17.387Z,6.30
2018-11-21T07:46:45.624Z,6.40
2018-11-21T07:49:13.762Z,6.20
2018-11-21T07:51:41.999Z,6.20
2018-11-21T07:54:10.129Z,6.30
2018-11-21T07:57:44.407Z,6.30
2018-11-21T08:01:02.736Z,6.50
2018-11-21T08:03:50.840Z,6.60
2018-11-21T08:06:31.853Z,6.60
2018-11-21T08:09:18.667Z,6.50
2018-11-21T08:12:15.396Z,6.60
2018-11-21T08:15:09.205Z,6.70
2018-11-21T08:17:59.864Z,6.70
2018-11-21T08:20:46.159Z,6.60
2018-11-21T08:23:55.402Z,6.50
2018-11-21T08:26:45.480Z,6.70
2018-11-21T08:29:13.754Z,6.70
2018-11-21T08:31:42.055Z,6.70
2018-11-21T08:34:10.279Z,6.70
2018-11-21T08:36:38.535Z,6.70
2018-11-21T08:39:08.457Z,6.70
2018-11-21T08:41:36.711Z,6.60
2018-11-21T08:44:05.660Z,6.60
2018-11-21T08:46:34.186Z,6.50
2018-11-21T08:49:02.406Z,6.60
2018-11-21T08:51:30.631Z,6.80
2018-11-21T08:53:58.870Z,6.70
2018-11-21T08:56:27.092Z,6.70
2018-11-21T08:58:55.462Z,6.70
2018-11-21T09:01:23.571Z,6.70
2018-11-21T09:03:51.671Z,6.60
2018-11-21T09:06:19.896Z,6.60
2018-11-21T09:08:48.020Z,6.70
2018-11-21T09:11:16.252Z,6.70
2018-11-21T09:13:44.452Z,6.70
2018-11-21T09:16:12.674Z,6.70
2018-11-21T09:18:40.828Z,6.80
2018-11-21T09:21:09.048Z,6.80
2018-11-21T09:23:37.163Z,6.80
2018-11-21T09:26:05.384Z,6.70
2018-11-21T09:28:33.527Z,6.90
2018-11-21T09:31:01.714Z,7.00
2018-11-21T09:33:29.984Z,7.10
2018-11-21T09:35:58.174Z,7.00
2018-11-21T09:38:26.446Z,7.10
2018-11-21T09:40:54.576Z,7.20
2018-11-21T09:43:22.796Z,7.00
2018-11-21T09:45:50.926Z,6.90
2018-11-21T09:48:19.180Z,7.00
2018-11-21T09:50:47.414Z,7.20
2018-11-21T09:53:15.660Z,7.20
2018-11-21T09:55:43.906Z,7.20
2018-11-21T09:58:12.083Z,7.30
2018-11-21T10:01:35.965Z,7.30
2018-11-21T10:04:04.211Z,7.30
2018-11-21T10:06:36.372Z,7.40
2018-11-21T10:09:10.515Z,7.30
2018-11-21T10:11:38.749Z,7.30
2018-11-21T10:14:06.862Z,7.10
2018-11-21T10:16:35.099Z,6.90
2018-11-21T10:19:03.526Z,7.00
2018-11-21T10:21:33.084Z,7.00
2018-11-21T10:24:01.256Z,7.00
2018-11-21T10:26:29.447Z,6.90
2018-11-21T10:28:57.590Z,7.00
2018-11-21T10:31:25.794Z,7.00
2018-11-21T10:33:53.914Z,7.10
2018-11-21T10:36:22.113Z,7.10
2018-11-21T10:38:50.313Z,7.20
2018-11-21T10:41:18.513Z,7.30
2018-11-21T10:43:46.739Z,7.20
2018-11-21T10:46:14.854Z,7.10
2018-11-21T10:48:43.103Z,7.30
2018-11-21T10:51:11.232Z,7.30
2018-11-21T10:53:39.420Z,7.40
2018-11-21T10:56:07.537Z,7.40
2018-11-21T10:58:35.737Z,7.40
2018-11-21T11:01:13.311Z,7.50
2018-11-21T11:03:48.146Z,7.50
2018-11-21T11:06:47.210Z,7.60
2018-11-21T11:09:33.684Z,7.60
2018-11-21T11:12:20.203Z,7.70
2018-11-21T11:15:10.608Z,7.70
2018-11-21T11:17:59.455Z,7.60
2018-11-21T11:20:56.668Z,7.40
2018-11-21T11:23:56.733Z,7.70
2018-11-21T11:26:42.504Z,7.70
2018-11-21T11:29:28.848Z,7.60
2018-11-21T11:32:22.184Z,7.70
2018-11-21T11:35:08.782Z,7.80
2018-11-21T11:37:59.173Z,7.60
2018-11-21T11:41:05.032Z,7.70
2018-11-21T11:44:05.075Z,7.60
2018-11-21T11:47:04.971Z,7.70
2018-11-21T11:50:01.812Z,7.60
2018-11-21T11:52:48.168Z,7.70
2018-11-21T11:55:40.035Z,7.50
2018-11-21T11:58:27.270Z,7.60
2018-11-21T12:01:13.655Z,7.80
2018-11-21T12:03:57.802Z,7.90
2018-11-21T12:06:28.540Z,8.00
2018-11-21T12:09:28.316Z,8.10
2018-11-21T12:12:14.773Z,8.10
2018-11-21T12:15:18.854Z,8.10
2018-11-21T12:18:24.720Z,8.10
2018-11-21T12:21:11.086Z,8.00
2018-11-21T12:23:57.831Z,8.00
2018-11-21T12:26:54.725Z,8.10
2018-11-21T12:29:45.774Z,8.00
2018-11-21T12:32:27.080Z,8.00
2018-11-21T12:35:21.682Z,7.80
2018-11-21T12:37:58.239Z,7.90
2018-11-21T12:40:58.287Z,7.90
2018-11-21T12:43:55.218Z,7.90
2018-11-21T12:46:54.799Z,8.00
2018-11-21T12:50:00.499Z,8.10
2018-11-21T12:52:46.787Z,8.00
2018-11-21T12:55:25.898Z,8.20
2018-11-21T12:58:12.570Z,8.20
2018-11-21T13:01:18.336Z,8.30
2018-11-21T13:04:06.199Z,8.30
2018-11-21T13:06:53.433Z,8.40
2018-11-21T13:09:33.782Z,8.40
2018-11-21T13:12:19.906Z,8.20
2018-11-21T13:15:07.544Z,8.20
2018-11-21T13:17:58.207Z,8.20
2018-11-21T13:20:44.517Z,8.20
2018-11-21T13:23:30.750Z,8.10
2018-11-21T13:26:16.976Z,7.80
2018-11-21T13:29:04.658Z,7.90
2018-11-21T13:31:51.007Z,8.00
2018-11-21T13:34:53.732Z,8.10
2018-11-21T13:37:40.342Z,8.10
2018-11-21T13:40:32.187Z,8.30
2018-11-21T13:43:13.839Z,7.90
2018-11-21T13:46:00.259Z,8.00
2018-11-21T13:48:55.805Z,8.00
2018-11-21T13:51:40.330Z,8.00
2018-11-21T13:54:30.959Z,8.10
2018-11-21T13:56:59.050Z,8.10
2018-11-21T13:59:28.604Z,8.10
2018-11-21T14:01:56.712Z,8.10
2018-11-21T14:04:24.810Z,8.20
2018-11-21T14:06:52.871Z,8.20
2018-11-21T14:09:22.128Z,8.10
2018-11-21T14:11:50.489Z,8.10
2018-11-21T14:14:18.878Z,8.10
2018-11-21T14:16:46.940Z,8.20
2018-11-21T14:19:15.127Z,8.20
2018-11-21T14:21:43.224Z,8.00
2018-11-21T14:24:11.307Z,8.00
2018-11-21T14:26:39.415Z,8.10
2018-11-21T14:29:07.526Z,8.20
2018-11-21T14:31:35.664Z,8.20
2018-11-21T14:34:04.012Z,8.20
2018-11-21T14:36:32.126Z,8.10
2018-11-21T14:39:00.267Z,8.00
2018-11-21T14:41:28.346Z,8.10
2018-11-21T14:43:56.455Z,8.00
2018-11-21T14:46:24.545Z,8.10
2018-11-21T14:48:52.655Z,8.10
2018-11-21T14:51:20.743Z,8.00
2018-11-21T14:53:48.831Z,8.00
2018-11-21T14:56:16.892Z,8.00
2018-11-21T14:58:45.052Z,7.80
2018-11-21T15:01:13.125Z,7.70
2018-11-21T15:03:41.350Z,7.60
2018-11-21T15:06:09.424Z,7.60
2018-11-21T15:08:37.597Z,7.70
2018-11-21T15:11:05.662Z,7.50
2018-11-21T15:13:33.763Z,7.40
2018-11-21T15:16:01.863Z,7.40
2018-11-21T15:18:29.964Z,7.60
2018-11-21T15:20:58.057Z,7.70
2018-11-21T15:23:26.119Z,7.70
2018-11-21T15:25:54.206Z,7.80
2018-11-21T15:28:22.319Z,7.50
2018-11-21T15:30:50.424Z,7.40
2018-11-21T15:33:19.108Z,7.50
2018-11-21T15:35:47.204Z,7.60
2018-11-21T15:38:15.668Z,7.50
2018-11-21T15:40:47.067Z,7.60
2018-11-21T15:43:11.892Z,7.70
2018-11-21T15:45:39.962Z,7.80
2018-11-21T15:48:08.174Z,8.00
2018-11-21T15:50:36.317Z,8.00
2018-11-21T15:53:04.430Z,8.00
2018-11-21T15:55:32.504Z,7.90
2018-11-21T15:58:00.650Z,8.00
2018-11-21T16:00:33.783Z,7.80
2018-11-21T16:03:03.971Z,7.70
2018-11-21T16:05:32.284Z,7.80
2018-11-21T16:08:03.479Z,7.80
2018-11-21T16:10:36.120Z,7.80
2018-11-21T16:13:04.726Z,7.80
2018-11-21T16:15:41.866Z,7.70
2018-11-21T16:18:09.964Z,7.60
2018-11-21T16:20:38.075Z,7.50
2018-11-21T16:23:06.222Z,7.50
2018-11-21T16:25:34.317Z,7.60
2018-11-21T16:28:02.499Z,7.40
2018-11-21T16:30:30.591Z,7.50
2018-11-21T16:32:58.702Z,7.50
2018-11-21T16:35:26.813Z,7.50
2018-11-21T16:37:54.941Z,7.40
2018-11-21T16:40:24.675Z,7.00
2018-11-21T16:42:53.795Z,7.00
2018-11-21T16:45:26.555Z,7.10
2018-11-21T16:47:54.641Z,7.20
2018-11-21T16:50:22.745Z,7.30
2018-11-21T16:52:50.847Z,7.40
2018-11-21T16:55:20.479Z,7.40
2018-11-21T16:57:49.175Z,7.40
2018-11-21T17:00:21.473Z,7.40
2018-11-21T17:02:50.858Z,7.30
2018-11-21T17:05:20.134Z,7.40
2018-11-21T17:07:48.431Z,7.40
2018-11-21T17:10:18.061Z,7.40
2018-11-21T17:12:46.664Z,7.50
2018-11-21T17:15:16.332Z,7.60
2018-11-21T17:17:44.425Z,7.70
2018-11-21T17:20:18.142Z,7.70
2018-11-21T17:22:47.594Z,7.70
2018-11-21T17:25:17.211Z,7.70
2018-11-21T17:27:45.682Z,7.70
2018-11-21T17:30:14.902Z,7.70
2018-11-21T17:32:43.013Z,7.60
2018-11-21T17:35:12.476Z,7.70
2018-11-21T17:37:40.611Z,7.60
2018-11-21T17:40:21.827Z,7.40
2018-11-21T17:42:49.998Z,7.40
2018-11-21T17:45:18.570Z,7.40
2018-11-21T17:47:46.670Z,7.10
2018-11-21T17:50:16.053Z,7.10
2018-11-21T17:52:44.875Z,7.10
2018-11-21T17:55:14.655Z,7.20
2018-11-21T17:57:42.751Z,7.30
2018-11-21T18:00:14.890Z,7.20
2018-11-21T18:02:43.011Z,7.30
2018-11-21T18:05:12.460Z,7.30
2018-11-21T18:07:40.566Z,7.30
2018-11-21T18:10:17.711Z,7.20
2018-11-21T18:12:46.420Z,7.30
2018-11-21T18:15:15.090Z,7.40
2018-11-21T18:17:44.414Z,7.40
2018-11-21T18:20:13.288Z,7.40
2018-11-21T18:22:42.174Z,7.40
2018-11-21T18:27:43.197Z,7.30
2018-11-21T18:30:14.199Z,7.40
2018-11-21T18:32:43.548Z,7.50
2018-11-21T18:35:13.305Z,7.20
2018-11-21T18:37:42.560Z,7.40
2018-11-21T18:40:16.311Z,7.60
2018-11-21T18:42:47.298Z,7.60
2018-11-21T18:45:22.192Z,7.60
2018-11-21T18:47:50.964Z,7.60
2018-11-21T18:50:19.756Z,7.60
2018-11-21T18:52:49.442Z,7.70
2018-11-21T18:55:20.940Z,7.40
2018-11-21T18:58:42.921Z,7.50
2018-11-21T19:01:11.589Z,7.60
2018-11-21T19:03:40.094Z,7.60
2018-11-21T19:06:08.515Z,7.60
2018-11-21T19:08:37.891Z,7.50
2018-11-21T19:11:06.019Z,7.50
2018-11-21T19:13:34.653Z,7.30
2018-11-21T19:16:03.855Z,7.30
2018-11-21T19:18:33.395Z,7.50
2018-11-21T19:21:01.531Z,7.60
2018-11-21T19:23:29.957Z,7.60
2018-11-21T19:25:58.460Z,7.50
2018-11-21T19:28:26.687Z,7.40
2018-11-21T19:30:54.919Z,7.40
2018-11-21T19:33:26.125Z,7.40
2018-11-21T19:35:54.426Z,7.50
2018-11-21T19:38:23.697Z,7.50
2018-11-21T19:40:53.147Z,7.40
2018-11-21T19:43:22.028Z,7.40
2018-11-21T19:45:51.107Z,7.50
2018-11-21T19:48:19.632Z,7.50
2018-11-21T19:50:47.998Z,7.40
2018-11-21T19:53:16.613Z,7.30
2018-11-21T19:55:46.404Z,7.40
2018-11-21T19:58:14.945Z,7.40
2018-11-21T20:00:43.171Z,7.30
2018-11-21T20:03:11.369Z,7.40
2018-11-21T20:05:39.545Z,7.30
2018-11-21T20:08:07.871Z,7.10
2018-11-21T20:10:36.583Z,7.10
2018-11-21T20:13:05.004Z,7.00
2018-11-21T20:15:33.252Z,6.80
2018-11-21T20:18:02.676Z,6.70
2018-11-21T20:20:30.958Z,6.80
2018-11-21T20:22:59.260Z,6.80
2018-11-21T20:25:27.642Z,6.90
2018-11-21T20:27:56.095Z,6.90
2018-11-21T20:30:29.261Z,6.80
2018-11-21T20:32:57.482Z,6.80
2018-11-21T20:35:26.004Z,7.00
2018-11-21T20:37:54.274Z,7.20
2018-11-21T20:40:27.064Z,7.30
2018-11-21T20:42:55.354Z,7.20
2018-11-21T20:45:25.333Z,7.20
2018-11-21T20:47:55.321Z,7.10
2018-11-21T20:50:24.182Z,7.20
2018-11-21T20:52:52.570Z,7.00
2018-11-21T20:55:22.655Z,6.80
2018-11-21T20:57:50.855Z,6.80
2018-11-21T21:00:26.435Z,6.90
2018-11-21T21:02:55.029Z,6.80
2018-11-21T21:05:24.504Z,6.90
2018-11-21T21:07:52.934Z,7.00
2018-11-21T21:10:25.633Z,7.20
2018-11-21T21:12:53.730Z,7.20
2018-11-21T21:15:22.227Z,7.00
2018-11-21T21:17:50.866Z,7.10
2018-11-21T21:20:20.761Z,7.30
2018-11-21T21:22:50.376Z,7.30
2018-11-21T21:25:19.944Z,7.30
2018-11-21T21:27:48.110Z,7.40
2018-11-21T21:30:20.623Z,7.40
2018-11-21T21:32:48.730Z,7.40
2018-11-21T21:35:17.787Z,7.50
2018-11-21T21:37:45.902Z,7.50
2018-11-21T21:40:20.230Z,7.50
2018-11-21T21:42:44.174Z,7.50
2018-11-21T21:45:17.227Z,7.50
2018-11-21T21:47:45.311Z,7.40
2018-11-21T21:50:14.533Z,7.40
2018-11-21T21:52:42.602Z,7.40
2018-11-21T21:55:11.473Z,7.50
2018-11-21T21:57:39.600Z,7.50
2018-11-21T22:00:14.887Z,7.40
2018-11-21T22:02:44.695Z,7.20
2018-11-21T22:05:12.827Z,7.20
2018-11-21T22:07:41.014Z,7.20
2018-11-21T22:10:11.067Z,7.30
2018-11-21T22:12:39.321Z,7.40
2018-11-21T22:15:22.891Z,7.50
2018-11-21T22:17:51.450Z,7.50
2018-11-21T22:20:19.940Z,7.50
2018-11-21T22:22:48.434Z,7.40
2018-11-21T22:25:16.623Z,7.30
2018-11-21T22:27:44.742Z,7.30
2018-11-21T22:30:13.967Z,7.50
2018-11-21T22:32:43.099Z,7.60
2018-11-21T22:35:12.260Z,7.60
2018-11-21T22:37:40.659Z,7.60
2018-11-21T22:40:11.676Z,7.50
2018-11-21T22:42:40.788Z,7.50
2018-11-21T22:45:10.393Z,7.40
2018-11-21T22:47:38.968Z,7.50
2018-11-21T22:50:09.386Z,7.30
2018-11-21T22:52:37.465Z,7.20
2018-11-21T22:55:06.412Z,7.10
2018-11-21T22:57:34.488Z,7.20
2018-11-21T23:00:02.666Z,7.30
2018-11-21T23:02:30.738Z,7.20
2018-11-21T23:04:58.836Z,7.10
2018-11-21T23:07:26.899Z,7.20
2018-11-21T23:09:55.016Z,7.20
2018-11-21T23:12:23.090Z,7.20
2018-11-21T23:14:51.187Z,7.10
2018-11-21T23:17:19.313Z,7.00
2018-11-21T23:19:47.394Z,7.10
2018-11-21T23:22:15.505Z,6.90
2018-11-21T23:24:43.585Z,6.70
2018-11-21T23:27:11.686Z,6.80
2018-11-21T23:29:39.773Z,7.10
2018-11-21T23:32:07.874Z,7.10
2018-11-21T23:34:36.042Z,7.10
2018-11-21T23:37:04.139Z,7.20
2018-11-21T23:39:32.342Z,7.30
2018-11-21T23:42:00.430Z,7.30
2018-11-21T23:44:28.517Z,7.40
2018-11-21T23:46:56.604Z,7.40
2018-11-21T23:49:24.763Z,7.30
2018-11-21T23:51:52.842Z,7.20
2018-11-21T23:54:20.934Z,7.30
2018-11-21T23:57:15.554Z,7.40
2018-11-21T23:59:19.342Z,7.50
